sensor_id;sensor_type;location;lat;lon;timestamp;pressure;altitude;pressure_sealevel;temperature;humidity
63916;BME280;50094;51.356;-0.196;2022-12-08T00:01:48;100790.99;;;20.15;26.82
63916;BME280;50094;51.356;-0.196;2022-12-08T00:04:14;100788.47;;;20.33;26.82
63916;BME280;50094;51.356;-0.196;2022-12-08T00:06:43;100788.52;;;20.06;26.80
63916;BME280;50094;51.356;-0.196;2022-12-08T00:09:16;100790.13;;;20.23;26.82
63916;BME280;50094;51.356;-0.196;2022-12-08T00:11:43;100788.92;;;20.22;26.84
63916;BME280;50094;51.356;-0.196;2022-12-08T00:14:10;100784.10;;;19.97;26.79
63916;BME280;50094;51.356;-0.196;2022-12-08T00:16:37;100777.48;;;20.32;26.75
63916;BME280;50094;51.356;-0.196;2022-12-08T00:19:04;100770.97;;;19.91;26.76
63916;BME280;50094;51.356;-0.196;2022-12-08T00:21:32;100768.32;;;20.09;26.77
63916;BME280;50094;51.356;-0.196;2022-12-08T00:23:58;100760.70;;;20.13;26.77
63916;BME280;50094;51.356;-0.196;2022-12-08T00:26:26;100758.98;;;20.09;26.77
63916;BME280;50094;51.356;-0.196;2022-12-08T00:28:54;100757.10;;;20.09;26.76
63916;BME280;50094;51.356;-0.196;2022-12-08T00:31:21;100757.20;;;20.11;26.75
63916;BME280;50094;51.356;-0.196;2022-12-08T00:33:48;100751.46;;;20.09;26.76
63916;BME280;50094;51.356;-0.196;2022-12-08T00:36:15;100746.40;;;19.81;26.72
63916;BME280;50094;51.356;-0.196;2022-12-08T00:38:42;100743.38;;;20.04;26.72
63916;BME280;50094;51.356;-0.196;2022-12-08T00:41:13;100737.24;;;20.24;26.68
63916;BME280;50094;51.356;-0.196;2022-12-08T00:43:41;100737.05;;;20.51;26.66
63916;BME280;50094;51.356;-0.196;2022-12-08T00:46:08;100734.76;;;19.95;26.68
63916;BME280;50094;51.356;-0.196;2022-12-08T00:48:35;100733.51;;;19.97;26.67
63916;BME280;50094;51.356;-0.196;2022-12-08T00:51:03;100731.36;;;19.90;26.70
63916;BME280;50094;51.356;-0.196;2022-12-08T00:53:30;100726.59;;;19.91;26.67
63916;BME280;50094;51.356;-0.196;2022-12-08T00:55:57;100726.19;;;19.93;26.62
63916;BME280;50094;51.356;-0.196;2022-12-08T00:58:24;100719.56;;;19.88;26.66
63916;BME280;50094;51.356;-0.196;2022-12-08T01:00:51;100716.72;;;19.86;26.65
63916;BME280;50094;51.356;-0.196;2022-12-08T01:03:18;100714.58;;;19.90;26.66
63916;BME280;50094;51.356;-0.196;2022-12-08T01:05:45;100707.65;;;19.92;26.64
63916;BME280;50094;51.356;-0.196;2022-12-08T01:08:12;100707.38;;;19.88;26.66
63916;BME280;50094;51.356;-0.196;2022-12-08T01:10:39;100699.50;;;19.94;26.62
63916;BME280;50094;51.356;-0.196;2022-12-08T01:13:06;100693.71;;;19.59;26.65
63916;BME280;50094;51.356;-0.196;2022-12-08T01:15:34;100692.38;;;19.78;26.68
63916;BME280;50094;51.356;-0.196;2022-12-08T01:18:01;100689.13;;;19.77;26.64
63916;BME280;50094;51.356;-0.196;2022-12-08T01:20:28;100692.53;;;19.81;26.58
63916;BME280;50094;51.356;-0.196;2022-12-08T01:22:56;100699.49;;;20.11;26.55
63916;BME280;50094;51.356;-0.196;2022-12-08T01:25:23;100700.01;;;19.86;26.55
63916;BME280;50094;51.356;-0.196;2022-12-08T01:27:51;100697.27;;;19.76;26.58
63916;BME280;50094;51.356;-0.196;2022-12-08T01:30:19;100691.44;;;19.76;26.57
63916;BME280;50094;51.356;-0.196;2022-12-08T01:32:47;100686.26;;;19.75;26.57
63916;BME280;50094;51.356;-0.196;2022-12-08T01:35:14;100686.55;;;19.76;26.55
63916;BME280;50094;51.356;-0.196;2022-12-08T01:37:41;100683.78;;;19.49;26.55
63916;BME280;50094;51.356;-0.196;2022-12-08T01:40:08;100678.26;;;19.95;26.53
63916;BME280;50094;51.356;-0.196;2022-12-08T01:42:36;100671.52;;;19.83;26.44
63916;BME280;50094;51.356;-0.196;2022-12-08T01:45:05;100669.72;;;19.73;26.47
63916;BME280;50094;51.356;-0.196;2022-12-08T01:47:37;100671.20;;;19.70;26.50
63916;BME280;50094;51.356;-0.196;2022-12-08T01:50:08;100670.66;;;19.89;26.49
63916;BME280;50094;51.356;-0.196;2022-12-08T01:52:39;100664.23;;;19.55;26.50
63916;BME280;50094;51.356;-0.196;2022-12-08T01:55:11;100666.16;;;19.59;26.48
63916;BME280;50094;51.356;-0.196;2022-12-08T01:57:44;100666.23;;;19.55;26.49
63916;BME280;50094;51.356;-0.196;2022-12-08T02:00:16;100669.41;;;19.60;26.45
63916;BME280;50094;51.356;-0.196;2022-12-08T02:02:52;100671.04;;;19.64;26.39
63916;BME280;50094;51.356;-0.196;2022-12-08T02:05:21;100674.49;;;19.74;26.42
63916;BME280;50094;51.356;-0.196;2022-12-08T02:07:49;100678.89;;;19.49;26.45
63916;BME280;50094;51.356;-0.196;2022-12-08T02:10:20;100678.86;;;19.76;26.39
63916;BME280;50094;51.356;-0.196;2022-12-08T02:12:48;100678.20;;;19.62;26.45
63916;BME280;50094;51.356;-0.196;2022-12-08T02:15:18;100675.78;;;19.54;26.35
63916;BME280;50094;51.356;-0.196;2022-12-08T02:17:55;100676.19;;;19.46;26.39
63916;BME280;50094;51.356;-0.196;2022-12-08T02:20:37;100668.67;;;19.42;26.35
63916;BME280;50094;51.356;-0.196;2022-12-08T02:23:13;100661.09;;;19.43;26.32
63916;BME280;50094;51.356;-0.196;2022-12-08T02:25:55;100655.79;;;19.62;26.35
63916;BME280;50094;51.356;-0.196;2022-12-08T02:28:50;100652.81;;;19.56;26.36
63916;BME280;50094;51.356;-0.196;2022-12-08T02:31:33;100650.44;;;19.67;26.32
63916;BME280;50094;51.356;-0.196;2022-12-08T02:34:14;100646.45;;;19.64;26.32
63916;BME280;50094;51.356;-0.196;2022-12-08T02:36:48;100643.44;;;19.67;26.26
63916;BME280;50094;51.356;-0.196;2022-12-08T02:39:26;100644.56;;;19.81;26.27
63916;BME280;50094;51.356;-0.196;2022-12-08T02:42:01;100640.79;;;19.79;26.26
63916;BME280;50094;51.356;-0.196;2022-12-08T02:44:34;100635.54;;;19.60;26.24
63916;BME280;50094;51.356;-0.196;2022-12-08T02:47:08;100632.95;;;19.54;26.27
63916;BME280;50094;51.356;-0.196;2022-12-08T02:49:37;100629.39;;;19.34;26.25
63916;BME280;50094;51.356;-0.196;2022-12-08T02:52:06;100629.54;;;19.51;26.27
63916;BME280;50094;51.356;-0.196;2022-12-08T02:54:34;100626.16;;;19.50;26.26
63916;BME280;50094;51.356;-0.196;2022-12-08T02:57:16;100622.17;;;19.33;26.24
63916;BME280;50094;51.356;-0.196;2022-12-08T03:00:00;100620.49;;;19.57;26.20
63916;BME280;50094;51.356;-0.196;2022-12-08T03:02:39;100611.68;;;19.69;26.21
63916;BME280;50094;51.356;-0.196;2022-12-08T03:05:14;100610.74;;;19.66;26.20
63916;BME280;50094;51.356;-0.196;2022-12-08T03:07:54;100610.61;;;19.71;26.21
63916;BME280;50094;51.356;-0.196;2022-12-08T03:10:30;100610.63;;;19.48;26.18
63916;BME280;50094;51.356;-0.196;2022-12-08T03:13:03;100600.95;;;19.67;26.20
63916;BME280;50094;51.356;-0.196;2022-12-08T03:15:33;100594.85;;;19.67;26.17
63916;BME280;50094;51.356;-0.196;2022-12-08T03:18:03;100589.87;;;19.38;26.18
63916;BME280;50094;51.356;-0.196;2022-12-08T03:20:33;100585.89;;;19.64;26.18
63916;BME280;50094;51.356;-0.196;2022-12-08T03:23:03;100580.16;;;19.38;26.16
63916;BME280;50094;51.356;-0.196;2022-12-08T03:25:34;100574.94;;;19.57;26.21
63916;BME280;50094;51.356;-0.196;2022-12-08T03:28:03;100572.35;;;19.45;26.12
63916;BME280;50094;51.356;-0.196;2022-12-08T03:30:35;100568.65;;;19.60;26.11
63916;BME280;50094;51.356;-0.196;2022-12-08T03:33:08;100567.48;;;19.40;26.12
63916;BME280;50094;51.356;-0.196;2022-12-08T03:35:40;100568.14;;;19.37;26.15
63916;BME280;50094;51.356;-0.196;2022-12-08T03:38:11;100563.11;;;19.66;26.08
63916;BME280;50094;51.356;-0.196;2022-12-08T03:40:39;100563.10;;;19.42;26.10
63916;BME280;50094;51.356;-0.196;2022-12-08T03:43:07;100562.23;;;19.49;26.06
63916;BME280;50094;51.356;-0.196;2022-12-08T03:45:34;100559.20;;;19.70;26.04
63916;BME280;50094;51.356;-0.196;2022-12-08T03:48:02;100557.22;;;19.24;26.07
63916;BME280;50094;51.356;-0.196;2022-12-08T03:50:29;100562.97;;;19.37;26.04
63916;BME280;50094;51.356;-0.196;2022-12-08T03:52:56;100560.59;;;19.34;26.07
63916;BME280;50094;51.356;-0.196;2022-12-08T03:55:23;100558.80;;;19.33;26.04
63916;BME280;50094;51.356;-0.196;2022-12-08T03:57:50;100555.61;;;19.41;26.05
63916;BME280;50094;51.356;-0.196;2022-12-08T04:00:18;100546.47;;;19.61;26.03
63916;BME280;50094;51.356;-0.196;2022-12-08T04:02:45;100544.01;;;19.21;25.98
63916;BME280;50094;51.356;-0.196;2022-12-08T04:05:13;100547.25;;;19.57;26.00
63916;BME280;50094;51.356;-0.196;2022-12-08T04:07:40;100542.96;;;19.64;25.97
63916;BME280;50094;51.356;-0.196;2022-12-08T04:10:08;100538.26;;;19.14;25.96
63916;BME280;50094;51.356;-0.196;2022-12-08T04:12:36;100536.38;;;19.46;25.99
63916;BME280;50094;51.356;-0.196;2022-12-08T04:15:03;100536.22;;;19.41;25.97
63916;BME280;50094;51.356;-0.196;2022-12-08T04:17:31;100540.11;;;19.20;26.01
63916;BME280;50094;51.356;-0.196;2022-12-08T04:19:58;100535.39;;;19.40;26.00
63916;BME280;50094;51.356;-0.196;2022-12-08T04:22:25;100537.36;;;19.32;26.02
63916;BME280;50094;51.356;-0.196;2022-12-08T04:24:52;100535.92;;;19.40;25.97
63916;BME280;50094;51.356;-0.196;2022-12-08T04:27:19;100537.50;;;19.14;25.97
63916;BME280;50094;51.356;-0.196;2022-12-08T04:29:46;100534.85;;;18.86;25.99
63916;BME280;50094;51.356;-0.196;2022-12-08T04:32:13;100531.49;;;19.32;25.95
63916;BME280;50094;51.356;-0.196;2022-12-08T04:34:40;100527.61;;;19.22;26.01
63916;BME280;50094;51.356;-0.196;2022-12-08T04:37:07;100531.89;;;19.26;25.99
63916;BME280;50094;51.356;-0.196;2022-12-08T04:39:34;100529.80;;;19.16;25.94
63916;BME280;50094;51.356;-0.196;2022-12-08T04:42:01;100529.53;;;19.41;25.90
63916;BME280;50094;51.356;-0.196;2022-12-08T04:44:28;100529.02;;;19.38;25.92
63916;BME280;50094;51.356;-0.196;2022-12-08T04:46:55;100527.05;;;19.28;25.96
63916;BME280;50094;51.356;-0.196;2022-12-08T04:49:22;100525.45;;;19.31;25.96
63916;BME280;50094;51.356;-0.196;2022-12-08T04:51:49;100522.94;;;19.34;25.95
63916;BME280;50094;51.356;-0.196;2022-12-08T04:54:16;100519.89;;;19.19;25.90
63916;BME280;50094;51.356;-0.196;2022-12-08T04:56:43;100519.03;;;19.38;25.91
63916;BME280;50094;51.356;-0.196;2022-12-08T04:59:10;100516.64;;;18.98;25.87
63916;BME280;50094;51.356;-0.196;2022-12-08T05:01:37;100515.87;;;19.35;25.90
63916;BME280;50094;51.356;-0.196;2022-12-08T05:04:04;100513.13;;;19.23;25.82
63916;BME280;50094;51.356;-0.196;2022-12-08T05:06:31;100510.74;;;19.22;25.79
63916;BME280;50094;51.356;-0.196;2022-12-08T05:08:59;100509.88;;;19.27;25.85
63916;BME280;50094;51.356;-0.196;2022-12-08T05:11:26;100511.67;;;19.18;25.79
63916;BME280;50094;51.356;-0.196;2022-12-08T05:13:53;100517.43;;;19.12;25.84
63916;BME280;50094;51.356;-0.196;2022-12-08T05:16:20;100524.17;;;19.26;25.86
63916;BME280;50094;51.356;-0.196;2022-12-08T05:18:47;100524.90;;;19.27;25.87
63916;BME280;50094;51.356;-0.196;2022-12-08T05:21:14;100523.60;;;19.21;25.87
63916;BME280;50094;51.356;-0.196;2022-12-08T05:23:41;100520.76;;;19.22;25.87
63916;BME280;50094;51.356;-0.196;2022-12-08T05:26:08;100518.77;;;19.00;25.85
63916;BME280;50094;51.356;-0.196;2022-12-08T05:28:35;100510.46;;;19.20;25.86
63916;BME280;50094;51.356;-0.196;2022-12-08T05:31:02;100506.18;;;18.85;25.88
63916;BME280;50094;51.356;-0.196;2022-12-08T05:33:30;100509.18;;;19.14;25.86
63916;BME280;50094;51.356;-0.196;2022-12-08T05:35:57;100507.85;;;19.18;25.86
63916;BME280;50094;51.356;-0.196;2022-12-08T05:38:24;100508.48;;;19.25;25.96
63916;BME280;50094;51.356;-0.196;2022-12-08T05:40:52;100503.11;;;19.47;26.01
63916;BME280;50094;51.356;-0.196;2022-12-08T05:43:19;100501.44;;;19.40;26.08
63916;BME280;50094;51.356;-0.196;2022-12-08T05:45:46;100500.55;;;19.73;26.16
63916;BME280;50094;51.356;-0.196;2022-12-08T05:48:13;100499.56;;;19.62;26.22
63916;BME280;50094;51.356;-0.196;2022-12-08T05:50:45;100502.81;;;19.71;26.24
63916;BME280;50094;51.356;-0.196;2022-12-08T05:53:12;100498.79;;;19.56;26.26
63916;BME280;50094;51.356;-0.196;2022-12-08T05:55:39;100493.57;;;19.59;26.28
63916;BME280;50094;51.356;-0.196;2022-12-08T05:58:10;100490.73;;;19.72;26.29
63916;BME280;50094;51.356;-0.196;2022-12-08T05:58:13;100491.19;;;19.95;26.29
63916;BME280;50094;51.356;-0.196;2022-12-08T06:00:41;100492.42;;;20.07;26.29
63916;BME280;50094;51.356;-0.196;2022-12-08T06:03:10;100494.83;;;19.96;26.21
63916;BME280;50094;51.356;-0.196;2022-12-08T06:05:39;100490.11;;;19.99;26.19
63916;BME280;50094;51.356;-0.196;2022-12-08T06:08:06;100490.27;;;20.05;26.18
63916;BME280;50094;51.356;-0.196;2022-12-08T06:10:33;100491.25;;;20.14;26.15
63916;BME280;50094;51.356;-0.196;2022-12-08T06:13:01;100484.18;;;19.86;26.19
63916;BME280;50094;51.356;-0.196;2022-12-08T06:15:28;100478.92;;;20.21;26.11
63916;BME280;50094;51.356;-0.196;2022-12-08T06:17:55;100477.62;;;20.16;26.09
63916;BME280;50094;51.356;-0.196;2022-12-08T06:20:22;100478.17;;;20.21;26.08
63916;BME280;50094;51.356;-0.196;2022-12-08T06:22:49;100478.44;;;20.22;26.03
63916;BME280;50094;51.356;-0.196;2022-12-08T06:25:17;100480.21;;;19.95;25.98
63916;BME280;50094;51.356;-0.196;2022-12-08T06:27:44;100476.27;;;20.29;25.85
63916;BME280;50094;51.356;-0.196;2022-12-08T06:30:12;100477.88;;;20.03;26.02
63916;BME280;50094;51.356;-0.196;2022-12-08T06:32:39;100479.82;;;19.89;25.86
63916;BME280;50094;51.356;-0.196;2022-12-08T06:35:07;100476.18;;;20.07;25.80
63916;BME280;50094;51.356;-0.196;2022-12-08T06:37:34;100476.44;;;20.14;25.74
63916;BME280;50094;51.356;-0.196;2022-12-08T06:40:01;100476.66;;;20.14;25.67
63916;BME280;50094;51.356;-0.196;2022-12-08T06:42:29;100472.06;;;19.99;25.64
63916;BME280;50094;51.356;-0.196;2022-12-08T06:44:56;100472.72;;;20.13;25.60
63916;BME280;50094;51.356;-0.196;2022-12-08T06:47:23;100472.11;;;19.83;25.58
63916;BME280;50094;51.356;-0.196;2022-12-08T06:49:50;100471.83;;;19.70;25.62
63916;BME280;50094;51.356;-0.196;2022-12-08T06:52:18;100472.39;;;19.77;25.63
63916;BME280;50094;51.356;-0.196;2022-12-08T06:54:45;100474.17;;;19.47;25.63
63916;BME280;50094;51.356;-0.196;2022-12-08T06:57:12;100471.76;;;19.40;25.64
63916;BME280;50094;51.356;-0.196;2022-12-08T06:59:39;100473.87;;;19.59;25.66
63916;BME280;50094;51.356;-0.196;2022-12-08T07:02:06;100475.79;;;19.35;25.66
63916;BME280;50094;51.356;-0.196;2022-12-08T07:04:33;100476.03;;;19.33;25.64
63916;BME280;50094;51.356;-0.196;2022-12-08T07:07:00;100473.59;;;19.22;25.66
63916;BME280;50094;51.356;-0.196;2022-12-08T07:09:27;100471.45;;;19.28;25.62
63916;BME280;50094;51.356;-0.196;2022-12-08T07:11:54;100467.75;;;19.25;25.61
63916;BME280;50094;51.356;-0.196;2022-12-08T07:14:21;100464.01;;;19.39;25.64
63916;BME280;50094;51.356;-0.196;2022-12-08T07:16:48;100461.51;;;19.58;25.64
63916;BME280;50094;51.356;-0.196;2022-12-08T07:19:15;100462.75;;;19.55;25.65
63916;BME280;50094;51.356;-0.196;2022-12-08T07:21:43;100463.57;;;19.52;25.63
63916;BME280;50094;51.356;-0.196;2022-12-08T07:24:10;100465.61;;;19.27;25.64
63916;BME280;50094;51.356;-0.196;2022-12-08T07:26:37;100465.65;;;19.11;25.69
63916;BME280;50094;51.356;-0.196;2022-12-08T07:29:05;100463.89;;;19.35;25.71
63916;BME280;50094;51.356;-0.196;2022-12-08T07:31:32;100463.83;;;19.38;25.68
63916;BME280;50094;51.356;-0.196;2022-12-08T07:33:59;100461.95;;;19.21;25.66
63916;BME280;50094;51.356;-0.196;2022-12-08T07:36:26;100465.42;;;19.38;25.68
63916;BME280;50094;51.356;-0.196;2022-12-08T07:38:53;100461.84;;;19.23;25.64
63916;BME280;50094;51.356;-0.196;2022-12-08T07:41:22;100459.97;;;18.98;25.65
63916;BME280;50094;51.356;-0.196;2022-12-08T07:43:50;100463.08;;;19.39;25.64
63916;BME280;50094;51.356;-0.196;2022-12-08T07:46:19;100463.83;;;19.30;25.65
63916;BME280;50094;51.356;-0.196;2022-12-08T07:48:47;100464.82;;;19.39;25.61
63916;BME280;50094;51.356;-0.196;2022-12-08T07:51:15;100460.61;;;19.46;25.55
63916;BME280;50094;51.356;-0.196;2022-12-08T07:53:44;100459.90;;;19.40;25.56
63916;BME280;50094;51.356;-0.196;2022-12-08T07:56:13;100463.98;;;19.40;25.54
63916;BME280;50094;51.356;-0.196;2022-12-08T07:58:40;100462.24;;;19.31;25.59
63916;BME280;50094;51.356;-0.196;2022-12-08T08:01:18;100464.65;;;19.24;25.61
63916;BME280;50094;51.356;-0.196;2022-12-08T08:03:46;100463.41;;;19.19;25.61
63916;BME280;50094;51.356;-0.196;2022-12-08T08:06:13;100461.93;;;19.26;25.57
63916;BME280;50094;51.356;-0.196;2022-12-08T08:08:40;100458.08;;;19.03;25.55
63916;BME280;50094;51.356;-0.196;2022-12-08T08:11:07;100459.38;;;18.92;25.46
63916;BME280;50094;51.356;-0.196;2022-12-08T08:13:35;100458.77;;;19.26;25.51
63916;BME280;50094;51.356;-0.196;2022-12-08T08:16:04;100457.58;;;19.05;25.49
63916;BME280;50094;51.356;-0.196;2022-12-08T08:18:31;100456.72;;;19.22;25.49
63916;BME280;50094;51.356;-0.196;2022-12-08T08:20:59;100457.30;;;19.15;25.52
63916;BME280;50094;51.356;-0.196;2022-12-08T08:23:27;100452.30;;;19.18;25.51
63916;BME280;50094;51.356;-0.196;2022-12-08T08:25:58;100446.66;;;19.04;25.57
63916;BME280;50094;51.356;-0.196;2022-12-08T08:28:25;100446.09;;;19.02;25.58
63916;BME280;50094;51.356;-0.196;2022-12-08T08:30:52;100450.84;;;18.84;25.56
63916;BME280;50094;51.356;-0.196;2022-12-08T08:33:19;100450.34;;;19.13;25.52
63916;BME280;50094;51.356;-0.196;2022-12-08T08:35:47;100446.39;;;19.17;25.47
63916;BME280;50094;51.356;-0.196;2022-12-08T08:38:14;100442.67;;;19.19;25.44
63916;BME280;50094;51.356;-0.196;2022-12-08T08:40:41;100438.87;;;19.14;25.46
63916;BME280;50094;51.356;-0.196;2022-12-08T08:43:09;100443.83;;;19.15;25.44
63916;BME280;50094;51.356;-0.196;2022-12-08T08:45:36;100445.55;;;19.19;25.44
63916;BME280;50094;51.356;-0.196;2022-12-08T08:48:03;100443.38;;;18.93;25.46
63916;BME280;50094;51.356;-0.196;2022-12-08T08:50:31;100440.94;;;19.12;25.37
63916;BME280;50094;51.356;-0.196;2022-12-08T08:52:58;100438.40;;;19.32;25.38
63916;BME280;50094;51.356;-0.196;2022-12-08T08:55:25;100435.68;;;19.26;25.40
63916;BME280;50094;51.356;-0.196;2022-12-08T08:57:52;100433.88;;;19.25;25.42
63916;BME280;50094;51.356;-0.196;2022-12-08T09:00:19;100432.29;;;19.17;25.44
63916;BME280;50094;51.356;-0.196;2022-12-08T09:02:47;100432.18;;;19.25;25.39
63916;BME280;50094;51.356;-0.196;2022-12-08T09:05:14;100431.71;;;19.29;25.32
63916;BME280;50094;51.356;-0.196;2022-12-08T09:07:41;100428.49;;;19.19;25.35
63916;BME280;50094;51.356;-0.196;2022-12-08T09:10:09;100424.48;;;19.04;25.33
63916;BME280;50094;51.356;-0.196;2022-12-08T09:12:36;100421.00;;;19.24;25.34
63916;BME280;50094;51.356;-0.196;2022-12-08T09:15:03;100413.27;;;19.26;25.31
63916;BME280;50094;51.356;-0.196;2022-12-08T09:17:31;100417.74;;;19.17;25.33
63916;BME280;50094;51.356;-0.196;2022-12-08T09:19:58;100421.44;;;19.21;25.33
63916;BME280;50094;51.356;-0.196;2022-12-08T09:22:25;100423.34;;;19.15;25.34
63916;BME280;50094;51.356;-0.196;2022-12-08T09:24:52;100420.46;;;19.11;25.35
63916;BME280;50094;51.356;-0.196;2022-12-08T09:27:19;100416.80;;;19.12;25.35
63916;BME280;50094;51.356;-0.196;2022-12-08T09:29:46;100415.29;;;19.16;25.35
63916;BME280;50094;51.356;-0.196;2022-12-08T09:32:13;100410.38;;;19.01;25.39
63916;BME280;50094;51.356;-0.196;2022-12-08T09:34:40;100412.80;;;19.54;25.38
63916;BME280;50094;51.356;-0.196;2022-12-08T09:37:07;100411.51;;;19.04;25.40
63916;BME280;50094;51.356;-0.196;2022-12-08T09:39:34;100411.01;;;19.02;25.42
63916;BME280;50094;51.356;-0.196;2022-12-08T09:42:02;100412.83;;;19.08;25.38
63916;BME280;50094;51.356;-0.196;2022-12-08T09:44:40;100410.72;;;19.07;25.39
63916;BME280;50094;51.356;-0.196;2022-12-08T09:47:17;100411.75;;;18.82;25.40
63916;BME280;50094;51.356;-0.196;2022-12-08T09:49:53;100413.57;;;19.13;25.39
63916;BME280;50094;51.356;-0.196;2022-12-08T09:52:24;100410.13;;;19.15;25.38
63916;BME280;50094;51.356;-0.196;2022-12-08T09:54:57;100412.77;;;19.13;25.39
63916;BME280;50094;51.356;-0.196;2022-12-08T09:57:26;100412.02;;;19.14;25.40
63916;BME280;50094;51.356;-0.196;2022-12-08T09:59:56;100412.75;;;19.13;25.40
63916;BME280;50094;51.356;-0.196;2022-12-08T10:02:28;100410.61;;;19.36;25.41
63916;BME280;50094;51.356;-0.196;2022-12-08T10:04:57;100410.81;;;19.16;25.40
63916;BME280;50094;51.356;-0.196;2022-12-08T10:07:31;100409.11;;;19.17;25.38
63916;BME280;50094;51.356;-0.196;2022-12-08T10:10:06;100410.14;;;19.13;25.43
63916;BME280;50094;51.356;-0.196;2022-12-08T10:12:42;100413.60;;;18.99;25.39
63916;BME280;50094;51.356;-0.196;2022-12-08T10:15:31;100410.12;;;19.17;25.41
63916;BME280;50094;51.356;-0.196;2022-12-08T10:18:06;100410.17;;;19.16;25.46
63916;BME280;50094;51.356;-0.196;2022-12-08T10:20:37;100415.19;;;18.88;25.51
63916;BME280;50094;51.356;-0.196;2022-12-08T10:23:08;100410.17;;;19.19;25.48
63916;BME280;50094;51.356;-0.196;2022-12-08T10:25:44;100405.94;;;19.28;25.43
63916;BME280;50094;51.356;-0.196;2022-12-08T10:28:13;100405.95;;;19.28;25.42
63916;BME280;50094;51.356;-0.196;2022-12-08T10:30:40;100406.26;;;19.22;25.45
63916;BME280;50094;51.356;-0.196;2022-12-08T10:33:13;100408.36;;;18.94;25.50
63916;BME280;50094;51.356;-0.196;2022-12-08T10:35:44;100404.90;;;19.20;25.47
63916;BME280;50094;51.356;-0.196;2022-12-08T10:38:19;100397.49;;;19.23;25.48
63916;BME280;50094;51.356;-0.196;2022-12-08T10:40:49;100390.73;;;19.21;25.47
63916;BME280;50094;51.356;-0.196;2022-12-08T10:43:20;100389.32;;;19.18;25.48
63916;BME280;50094;51.356;-0.196;2022-12-08T10:45:48;100386.33;;;19.09;25.51
63916;BME280;50094;51.356;-0.196;2022-12-08T10:48:18;100382.10;;;19.44;25.49
63916;BME280;50094;51.356;-0.196;2022-12-08T10:50:51;100376.98;;;19.19;25.49
63916;BME280;50094;51.356;-0.196;2022-12-08T10:53:21;100376.46;;;18.87;25.53
63916;BME280;50094;51.356;-0.196;2022-12-08T10:55:50;100368.14;;;19.06;25.54
63916;BME280;50094;51.356;-0.196;2022-12-08T10:58:29;100364.96;;;19.04;25.53
63916;BME280;50094;51.356;-0.196;2022-12-08T11:01:00;100360.88;;;19.10;25.51
63916;BME280;50094;51.356;-0.196;2022-12-08T11:03:30;100353.55;;;19.41;25.48
63916;BME280;50094;51.356;-0.196;2022-12-08T11:06:01;100353.09;;;19.06;25.52
63916;BME280;50094;51.356;-0.196;2022-12-08T11:08:45;100350.12;;;19.02;25.56
63916;BME280;50094;51.356;-0.196;2022-12-08T11:11:13;100347.29;;;19.10;25.51
63916;BME280;50094;51.356;-0.196;2022-12-08T11:13:41;100346.70;;;19.43;25.50
63916;BME280;50094;51.356;-0.196;2022-12-08T11:16:12;100348.32;;;19.13;25.51
63916;BME280;50094;51.356;-0.196;2022-12-08T11:18:42;100344.78;;;18.97;25.48
63916;BME280;50094;51.356;-0.196;2022-12-08T11:21:13;100345.40;;;19.17;25.50
63916;BME280;50094;51.356;-0.196;2022-12-08T11:23:45;100343.82;;;18.76;25.48
63916;BME280;50094;51.356;-0.196;2022-12-08T11:26:19;100343.56;;;19.03;25.46
63916;BME280;50094;51.356;-0.196;2022-12-08T11:28:49;100341.35;;;19.18;25.49
63916;BME280;50094;51.356;-0.196;2022-12-08T11:31:24;100342.41;;;19.18;25.51
63916;BME280;50094;51.356;-0.196;2022-12-08T11:33:53;100339.66;;;19.19;25.51
63916;BME280;50094;51.356;-0.196;2022-12-08T11:36:25;100339.38;;;19.43;25.54
63916;BME280;50094;51.356;-0.196;2022-12-08T11:38:56;100334.37;;;18.90;25.55
63916;BME280;50094;51.356;-0.196;2022-12-08T11:41:26;100329.06;;;19.18;25.54
63916;BME280;50094;51.356;-0.196;2022-12-08T11:44:00;100327.44;;;19.19;25.54
63916;BME280;50094;51.356;-0.196;2022-12-08T11:46:33;100323.07;;;19.09;25.58
63916;BME280;50094;51.356;-0.196;2022-12-08T11:49:05;100320.53;;;19.05;25.63
63916;BME280;50094;51.356;-0.196;2022-12-08T11:51:38;100322.07;;;18.96;25.67
63916;BME280;50094;51.356;-0.196;2022-12-08T11:54:14;100317.36;;;18.92;25.61
63916;BME280;50094;51.356;-0.196;2022-12-08T11:56:46;100313.50;;;19.11;25.64
63916;BME280;50094;51.356;-0.196;2022-12-08T11:59:20;100308.57;;;19.07;25.77
63916;BME280;50094;51.356;-0.196;2022-12-08T12:01:49;100306.70;;;19.10;25.72
63916;BME280;50094;51.356;-0.196;2022-12-08T12:04:21;100304.37;;;19.09;25.72
63916;BME280;50094;51.356;-0.196;2022-12-08T12:07:20;100299.19;;;19.21;25.69
63916;BME280;50094;51.356;-0.196;2022-12-08T12:10:01;100300.16;;;19.07;25.75
63916;BME280;50094;51.356;-0.196;2022-12-08T12:12:45;100295.06;;;19.09;25.75
63916;BME280;50094;51.356;-0.196;2022-12-08T12:15:30;100294.39;;;19.02;25.82
63916;BME280;50094;51.356;-0.196;2022-12-08T12:18:03;100293.49;;;19.14;25.78
63916;BME280;50094;51.356;-0.196;2022-12-08T12:20:34;100294.17;;;19.15;25.77
63916;BME280;50094;51.356;-0.196;2022-12-08T12:23:06;100293.00;;;19.17;25.77
63916;BME280;50094;51.356;-0.196;2022-12-08T12:25:35;100296.22;;;19.13;25.79
63916;BME280;50094;51.356;-0.196;2022-12-08T12:28:05;100298.23;;;19.14;25.79
63916;BME280;50094;51.356;-0.196;2022-12-08T12:30:51;100297.23;;;18.91;25.82
63916;BME280;50094;51.356;-0.196;2022-12-08T12:33:21;100297.72;;;19.19;25.79
63916;BME280;50094;51.356;-0.196;2022-12-08T12:35:49;100295.37;;;19.24;25.78
63916;BME280;50094;51.356;-0.196;2022-12-08T12:38:22;100292.97;;;19.22;25.80
63916;BME280;50094;51.356;-0.196;2022-12-08T12:40:50;100299.35;;;19.51;25.77
63916;BME280;50094;51.356;-0.196;2022-12-08T12:43:30;100295.62;;;19.14;25.83
63916;BME280;50094;51.356;-0.196;2022-12-08T12:47:04;100292.46;;;19.23;25.78
63916;BME280;50094;51.356;-0.196;2022-12-08T12:49:50;100290.64;;;19.18;25.83
63916;BME280;50094;51.356;-0.196;2022-12-08T12:52:50;100283.72;;;19.19;25.84